Midland, Ohio
Current Conditions -  °F | °C
As of 10:54 AM on Thursday 23 Oct 2014 (Local Time) from KILN Reporting Station
Clear Clear  
Wind Chill: 51°   Ceiling: Unl
Heat Index: 51°   Visibility: 10mi
Dew Point: 40°   Wind: 7mph
Humidity: 66%   Direction: 10°N
Pressure: 30.25"   Gusts: NA
Location:  39.31°N, 83.91°W
Report Text: KILN 231454Z AUTO 01006KT 10SM CLR 11/04 A3025 RMK AO2 SLP255 T01060044 52003
Loading
Personal Weather Stations






























Interactive Weather Map
Tropical Storm Tracking
New forecast layout! Learn more

10-Day Weather Forecast

Advertisements
Track Severe Weather on mobile